Map

Track Data

SID SEASON NUMBER BASIN SUBBASIN NAME ISO_TIME NATURE LAT LON WMO_WIND WMO_PRES WMO_AGENCY TRACK_TYPE DIST2LAND LANDFALL IFLAG USA_AGENCY USA_ATCF_ID USA_LAT USA_LON USA_RECORD USA_STATUS USA_WIND USA_PRES USA_SSHS USA_R34_NE USA_R34_SE USA_R34_SW USA_R34_NW USA_R50_NE USA_R50_SE USA_R50_SW USA_R50_NW USA_R64_NE USA_R64_SE USA_R64_SW USA_R64_NW USA_POCI USA_ROCI USA_RMW USA_EYE TOKYO_LAT TOKYO_LON TOKYO_GRADE TOKYO_WIND TOKYO_PRES TOKYO_R50_DIR TOKYO_R50_LONG TOKYO_R50_SHORT TOKYO_R30_DIR TOKYO_R30_LONG TOKYO_R30_SHORT TOKYO_LAND CMA_LAT CMA_LON CMA_CAT CMA_WIND CMA_PRES HKO_LAT HKO_LON HKO_CAT HKO_WIND HKO_PRES NEWDELHI_LAT NEWDELHI_LON NEWDELHI_GRADE NEWDELHI_WIND NEWDELHI_PRES NEWDELHI_CI NEWDELHI_DP NEWDELHI_POCI REUNION_LAT REUNION_LON REUNION_TYPE REUNION_WIND REUNION_PRES REUNION_TNUM REUNION_CI REUNION_RMW REUNION_R34_NE REUNION_R34_SE REUNION_R34_SW REUNION_R34_NW REUNION_R50_NE REUNION_R50_SE REUNION_R50_SW REUNION_R50_NW REUNION_R64_NE REUNION_R64_SE REUNION_R64_SW REUNION_R64_NW BOM_LAT BOM_LON BOM_TYPE BOM_WIND BOM_PRES BOM_TNUM BOM_CI BOM_RMW BOM_R34_NE BOM_R34_SE BOM_R34_SW BOM_R34_NW BOM_R50_NE BOM_R50_SE BOM_R50_SW BOM_R50_NW BOM_R64_NE BOM_R64_SE BOM_R64_SW BOM_R64_NW BOM_ROCI BOM_POCI BOM_EYE BOM_POS_METHOD BOM_PRES_METHOD NADI_LAT NADI_LON NADI_CAT NADI_WIND NADI_PRES WELLINGTON_LAT WELLINGTON_LON WELLINGTON_WIND WELLINGTON_PRES DS824_LAT DS824_LON DS824_STAGE DS824_WIND DS824_PRES TD9636_LAT TD9636_LON TD9636_STAGE TD9636_WIND TD9636_PRES TD9635_LAT TD9635_LON TD9635_WIND TD9635_PRES TD9635_ROCI NEUMANN_LAT NEUMANN_LON NEUMANN_CLASS NEUMANN_WIND NEUMANN_PRES MLC_LAT MLC_LON MLC_CLASS MLC_WIND MLC_PRES USA_GUST BOM_GUST BOM_GUST_PER REUNION_GUST REUNION_GUST_PER USA_SEAHGT USA_SEARAD_NE USA_SEARAD_SE USA_SEARAD_SW USA_SEARAD_NW STORM_SPEED STORM_DIR
1916127S19165 1916 21 SP MM NOT_NAMED 1916-05-05 12:00:00 NR -19.2000 165.200 main 143 138 __________O___ -1 -19.2000 165.200 7 1 252
1916127S19165 1916 21 SP MM NOT_NAMED 1916-05-05 15:00:00 NR -19.2216 165.133 main 138 123 __________P___ -1 -19.2216 165.133 7 2 250
1916127S19165 1916 21 SP MM NOT_NAMED 1916-05-05 18:00:00 NR -19.2546 165.042 main 123 119 __________P___ -1 -19.2546 165.042 7 2 247
1916127S19165 1916 21 SP MM NOT_NAMED 1916-05-05 21:00:00 NR -19.3104 164.906 main 119 102 __________P___ -1 -19.3104 164.906 7 4 246
1916127S19165 1916 21 SP MM NOT_NAMED 1916-05-06 00:00:00 NR -19.4000 164.700 main 102 84 __________O___ -1 -19.4000 164.700 7 5 245
1916127S19165 1916 21 SP MM NOT_NAMED 1916-05-06 03:00:00 NR -19.5312 164.411 main 84 55 __________P___ -1 -19.5312 164.411 7 7 244
1916127S19165 1916 21 SP MM NOT_NAMED 1916-05-06 06:00:00 NR -19.6979 164.060 main 55 49 __________P___ -1 -19.6979 164.060 7 8 242
1916127S19165 1916 21 SP MM NOT_NAMED 1916-05-06 09:00:00 NR -19.8906 163.679 main 53 53 __________P___ -1 -19.8906 163.679 7 8 241
1916127S19165 1916 21 SP MM NOT_NAMED 1916-05-06 12:00:00 NR -20.1000 163.300 main 76 76 __________O___ -1 -20.1000 163.300 7 8 239
1916127S19165 1916 21 SP MM NOT_NAMED 1916-05-06 15:00:00 NR -20.2943 162.955 main 104 104 __________P___ -1 -20.2943 162.955 7 8 238
1916127S19165 1916 21 SP MM NOT_NAMED 1916-05-06 18:00:00 NR -20.5049 162.620 main 147 147 __________P___ -1 -20.5049 162.620 7 8 234
1916127S19165 1916 21 SP MM NOT_NAMED 1916-05-06 21:00:00 NR -20.7381 162.299 main 182 182 __________P___ -1 -20.7381 162.299 7 8 230
1916127S19165 1916 21 SP MM NOT_NAMED 1916-05-07 00:00:00 NR -21.0000 162.000 main 222 222 __________O___ -1 -21.0000 162.000 7 8 227
1916127S19165 1916 21 SP MM NOT_NAMED 1916-05-07 03:00:00 NR -21.2800 161.680 main 263 263 __________P___ -1 -21.2800 161.680 7 8 224
1916127S19165 1916 21 SP MM NOT_NAMED 1916-05-07 06:00:00 NR -21.5901 161.388 main 306 306 __________P___ -1 -21.5901 161.388 7 8 217
1916127S19165 1916 21 SP MM NOT_NAMED 1916-05-07 09:00:00 NR -21.9301 161.152 main 341 341 __________P___ -1 -21.9301 161.152 7 8 207
1916127S19165 1916 21 SP MM NOT_NAMED 1916-05-07 12:00:00 NR -22.3000 161.000 main 382 382 __________O___ -1 -22.3000 161.000 7 9 204
1916127S19165 1916 21 SP MM NOT_NAMED 1916-05-07 15:00:00 NR -22.7132 160.784 main 426 426 __________P___ -1 -22.7132 160.784 7 9 199
1916127S19165 1916 21 SP MM NOT_NAMED 1916-05-07 18:00:00 NR -23.1514 160.677 main 466 466 __________P___ -1 -23.1514 160.677 7 9 0
1916127S19165 1916 21 SP MM NOT_NAMED 1916-05-07 21:00:00 NR -23.5891 160.781 main 484 477 __________P___ -1 -23.5891 160.781 7 10 151
1916127S19165 1916 21 SP MM NOT_NAMED 1916-05-08 00:00:00 NR -24.0000 161.200 main 477 432 __________O___ -1 -24.0000 161.200 7 14 122
1916127S19165 1916 21 SP MM NOT_NAMED 1916-05-08 03:00:00 NR -24.3481 162.117 main 432 392 __________P___ -1 -24.3481 162.117 7 21 109
1916127S19165 1916 21 SP MM NOT_NAMED 1916-05-08 06:00:00 NR -24.6572 163.336 main 402 343 __________P___ -1 -24.6572 163.336 7 24 104
1916127S19165 1916 21 SP MM NOT_NAMED 1916-05-08 09:00:00 NR -24.9362 164.663 main 338 321 __________P___ -1 -24.9362 164.663 7 24 103
1916127S19165 1916 21 SP MM NOT_NAMED 1916-05-08 12:00:00 NR -25.2000 165.900 main 323 318 __________O___ -1 -25.2000 165.900 7 21 106
1916127S19165 1916 21 SP MM NOT_NAMED 1916-05-08 15:00:00 NR -25.4953 166.842 main 346 346 __________P___ -1 -25.4953 166.842 7 17 110
1916127S19165 1916 21 SP MM NOT_NAMED 1916-05-08 18:00:00 NR -25.7841 167.655 main 388 388 __________P___ -1 -25.7841 167.655 7 15 113
1916127S19165 1916 21 SP MM NOT_NAMED 1916-05-08 21:00:00 NR -26.0560 168.341 main 437 437 __________P___ -1 -26.0560 168.341 7 12 115
1916127S19165 1916 21 SP MM NOT_NAMED 1916-05-09 00:00:00 NR -26.3000 168.900 main 480 480 __________O___ -1 -26.3000 168.900 7 10 116
1916127S19165 1916 21 SP MM NOT_NAMED 1916-05-09 03:00:00 NR -26.5015 169.365 main 523 523 __________P___ -1 -26.5015 169.365 7 8 118
1916127S19165 1916 21 SP MM NOT_NAMED 1916-05-09 06:00:00 NR -26.6774 169.710 main 557 557 __________P___ -1 -26.6774 169.710 7 6 122
1916127S19165 1916 21 SP MM NOT_NAMED 1916-05-09 09:00:00 NR -26.8397 169.974 main 582 582 __________P___ -1 -26.8397 169.974 7 5 126
1916127S19165 1916 21 SP MM NOT_NAMED 1916-05-09 12:00:00 NR -27.0000 170.200 main 612 612 __________O___ -1 -27.0000 170.200 7 4 128
1916127S19165 1916 21 SP MM NOT_NAMED 1916-05-09 15:00:00 NR -27.0992 170.345 main 627 627 __________P___ -1 -27.0992 170.345 7 3 131
1916127S19165 1916 21 SP MM NOT_NAMED 1916-05-09 18:00:00 NR -27.2105 170.478 main 647 647 __________P___ -1 -27.2105 170.478 7 4 133
1916127S19165 1916 21 SP MM NOT_NAMED 1916-05-09 21:00:00 NR -27.3917 170.697 main 677 677 __________P___ -1 -27.3917 170.697 7 7 132
1916127S19165 1916 21 SP MM NOT_NAMED 1916-05-10 00:00:00 NR -27.7000 171.100 main 727 706 __________O___ -1 -27.7000 171.100 7 13 129
1916127S19165 1916 21 SP MM NOT_NAMED 1916-05-10 03:00:00 NR -28.1980 171.808 main 706 635 __________P___ -1 -28.1980 171.808 7 18 128
1916127S19165 1916 21 SP MM NOT_NAMED 1916-05-10 06:00:00 NR -28.8183 172.713 main 635 561 __________P___ -1 -28.8183 172.713 7 21 128
1916127S19165 1916 21 SP MM NOT_NAMED 1916-05-10 09:00:00 NR -29.5039 173.738 main 561 505 __________P___ -1 -29.5039 173.738 7 23 127
1916127S19165 1916 21 SP MM NOT_NAMED 1916-05-10 12:00:00 NR -30.2000 174.800 main 508 483 __________O___ -1 -30.2000 174.800 7 23 127
1916127S19165 1916 21 SP MM NOT_NAMED 1916-05-10 15:00:00 NR -30.8646 175.833 main 479 477 __________P___ -1 -30.8646 175.833 7 22 127
1916127S19165 1916 21 SP MM NOT_NAMED 1916-05-10 18:00:00 NR -31.4971 176.834 main 478 473 __________P___ -1 -31.4971 176.834 7 21 126
1916127S19165 1916 21 SP MM NOT_NAMED 1916-05-10 21:00:00 NR -32.1062 177.818 main 481 479 __________P___ -1 -32.1062 177.818 7 21 126
1916127S19165 1916 21 SP MM NOT_NAMED 1916-05-11 00:00:00 NR -32.7000 178.800 main 504 __________O___ -1 -32.7000 178.800 7 20 126

Digital Typhoon Data and Search

About IBTrACS Database

This database is a web-friendly format of International Best Track Archive for Climate Stewardship (IBTrACS), a global best track data archive curated by NOAA dating back to 1842.

Updated: 2021-12-03